Time,TemperatureF,DewpointF,PressureIn,WindDirection,WindDirectionDegrees,WindSpeedMPH,WindSpeedGustMPH,Humidity,HourlyPrecipIn,Conditions,Clouds,dailyrainin,SoftwareType,DateUTC
2013-02-01 00:00:00,0.9,-9.7,30.43,NW,324,0.0,1.0,60,0.00,,,0.00,WeatherCatV1.13B119,2013-02-01 06:00:00,
2013-02-01 00:05:00,0.7,-9.9,30.43,NW,324,0.0,1.0,60,0.00,,,0.00,WeatherCatV1.13B119,2013-02-01 06:05:00,
2013-02-01 00:10:00,0.7,-9.5,30.43,NW,323,1.0,3.0,61,0.00,,,0.00,WeatherCatV1.13B119,2013-02-01 06:10:00,
2013-02-01 00:15:00,0.7,-9.5,30.42,NW,323,2.0,2.0,61,0.00,,,0.00,WeatherCatV1.13B119,2013-02-01 06:15:00,
2013-02-01 00:20:00,0.7,-9.5,30.42,NW,323,0.0,2.0,61,0.00,,,0.00,WeatherCatV1.13B119,2013-02-01 06:20:00,
2013-02-01 00:25:00,0.7,-9.5,30.42,NW,323,0.0,2.0,61,0.00,,,0.00,WeatherCatV1.13B119,2013-02-01 06:25:00,
2013-02-01 00:30:00,0.7,-9.5,30.43,NW,323,0.0,2.0,61,0.00,,,0.00,WeatherCatV1.13B119,2013-02-01 06:30:00,
2013-02-01 00:35:00,0.5,-9.7,30.43,NW,322,0.0,2.0,61,0.00,,,0.00,WeatherCatV1.13B119,2013-02-01 06:35:00,
2013-02-01 00:40:00,0.5,-9.7,30.43,NW,322,0.0,3.0,61,0.00,,,0.00,WeatherCatV1.13B119,2013-02-01 06:40:00,
2013-02-01 00:45:00,0.5,-9.7,30.44,West,259,2.0,3.0,61,0.00,,,0.00,WeatherCatV1.13B119,2013-02-01 06:45:00,
2013-02-01 00:50:00,0.7,-9.5,30.44,West,259,0.0,1.0,61,0.00,,,0.00,WeatherCatV1.13B119,2013-02-01 06:50:00,
2013-02-01 00:55:00,0.7,-9.5,30.44,WSW,257,0.0,1.0,61,0.00,,,0.00,WeatherCatV1.13B119,2013-02-01 06:55:00,
2013-02-01 01:00:00,0.7,-9.5,30.42,WSW,257,0.0,1.0,61,0.00,,,0.00,WeatherCatV1.13B119,2013-02-01 07:00:00,
2013-02-01 01:05:00,0.5,-9.4,30.42,WSW,257,1.0,1.0,62,0.00,,,0.00,WeatherCatV1.13B119,2013-02-01 07:05:00,
2013-02-01 01:10:00,0.5,-9.4,30.42,WSW,257,0.0,0.0,62,0.00,,,0.00,WeatherCatV1.13B119,2013-02-01 07:10:00,
2013-02-01 01:15:00,0.3,-9.6,30.42,WSW,257,0.0,1.0,62,0.00,,,0.00,WeatherCatV1.13B119,2013-02-01 07:15:00,
2013-02-01 01:20:00,0.1,-9.8,30.42,WSW,257,1.0,1.0,62,0.00,,,0.00,WeatherCatV1.13B119,2013-02-01 07:20:00,
2013-02-01 01:25:00,0.0,-9.6,30.42,WSW,257,1.0,1.0,63,0.00,,,0.00,WeatherCatV1.13B119,2013-02-01 07:25:00,
2013-02-01 01:30:00,0.0,-9.6,30.41,WSW,257,0.0,3.0,63,0.00,,,0.00,WeatherCatV1.13B119,2013-02-01 07:30:00,
2013-02-01 01:35:00,-0.2,-9.8,30.41,WSW,257,0.0,0.0,63,0.00,,,0.00,WeatherCatV1.13B119,2013-02-01 07:35:00,
2013-02-01 01:40:00,-0.2,-9.8,30.41,WSW,257,0.0,0.0,63,0.00,,,0.00,WeatherCatV1.13B119,2013-02-01 07:40:00,
2013-02-01 01:45:00,-0.2,-9.8,30.41,WSW,257,0.0,0.0,63,0.00,,,0.00,WeatherCatV1.13B119,2013-02-01 07:45:00,
2013-02-01 01:50:00,-0.2,-9.4,30.41,WSW,257,0.0,0.0,64,0.00,,,0.00,WeatherCatV1.13B119,2013-02-01 07:50:00,
2013-02-01 01:55:00,-0.4,-9.6,30.41,WSW,257,0.0,0.0,64,0.00,,,0.00,WeatherCatV1.13B119,2013-02-01 07:55:00,
2013-02-01 02:00:00,-0.4,-9.6,30.42,WSW,257,0.0,1.0,64,0.00,,,0.00,WeatherCatV1.13B119,2013-02-01 08:00:00,
2013-02-01 02:05:00,-0.6,-9.8,30.42,WSW,257,0.0,0.0,64,0.00,,,0.00,WeatherCatV1.13B119,2013-02-01 08:05:00,
2013-02-01 02:10:00,-0.6,-9.5,30.42,WSW,257,0.0,0.0,65,0.00,,,0.00,WeatherCatV1.13B119,2013-02-01 08:10:00,
2013-02-01 02:15:00,-0.6,-9.5,30.42,WSW,257,0.0,0.0,65,0.00,,,0.00,WeatherCatV1.13B119,2013-02-01 08:15:00,
2013-02-01 02:20:00,-0.8,-9.7,30.42,WSW,257,0.0,0.0,65,0.00,,,0.00,WeatherCatV1.13B119,2013-02-01 08:20:00,
2013-02-01 02:25:00,-1.0,-9.6,30.42,WSW,257,0.0,0.0,66,0.00,,,0.00,WeatherCatV1.13B119,2013-02-01 08:25:00,
2013-02-01 02:30:00,-1.0,-9.6,30.41,WSW,257,0.0,0.0,66,0.00,,,0.00,WeatherCatV1.13B119,2013-02-01 08:30:00,
2013-02-01 02:35:00,-1.0,-9.6,30.41,WSW,257,0.0,1.0,66,0.00,,,0.00,WeatherCatV1.13B119,2013-02-01 08:35:00,
2013-02-01 02:40:00,-1.2,-9.5,30.41,WSW,257,0.0,0.0,67,0.00,,,0.00,WeatherCatV1.13B119,2013-02-01 08:40:00,
2013-02-01 02:45:00,-1.2,-9.5,30.41,WSW,257,0.0,0.0,67,0.00,,,0.00,WeatherCatV1.13B119,2013-02-01 08:45:00,
2013-02-01 02:50:00,-1.2,-9.5,30.41,WSW,257,0.0,0.0,67,0.00,,,0.00,WeatherCatV1.13B119,2013-02-01 08:50:00,
2013-02-01 02:55:00,-1.2,-9.5,30.41,WSW,257,0.0,1.0,67,0.00,,,0.00,WeatherCatV1.13B119,2013-02-01 08:55:00,
2013-02-01 03:00:00,-1.0,-9.3,30.39,WSW,257,0.0,1.0,67,0.00,,,0.00,WeatherCatV1.13B119,2013-02-01 09:00:00,
2013-02-01 03:05:00,-1.0,-9.3,30.39,NW,321,1.0,2.0,67,0.00,,,0.00,WeatherCatV1.13B119,2013-02-01 09:05:00,
2013-02-01 03:10:00,-1.0,-9.3,30.39,NW,321,0.0,0.0,67,0.00,,,0.00,WeatherCatV1.13B119,2013-02-01 09:10:00,
2013-02-01 03:15:00,-1.2,-9.5,30.38,NW,321,0.0,0.0,67,0.00,,,0.00,WeatherCatV1.13B119,2013-02-01 09:15:00,
2013-02-01 03:20:00,-1.4,-9.7,30.38,NW,321,0.0,0.0,67,0.00,,,0.00,WeatherCatV1.13B119,2013-02-01 09:20:00,
2013-02-01 03:25:00,-1.6,-9.8,30.38,NW,321,0.0,0.0,67,0.00,,,0.00,WeatherCatV1.13B119,2013-02-01 09:25:00,
2013-02-01 03:30:00,-1.6,-9.5,30.38,NW,321,0.0,0.0,68,0.00,,,0.00,WeatherCatV1.13B119,2013-02-01 09:30:00,
2013-02-01 03:35:00,-1.8,-9.7,30.38,NW,321,0.0,0.0,68,0.00,,,0.00,WeatherCatV1.13B119,2013-02-01 09:35:00,
2013-02-01 03:40:00,-2.0,-9.9,30.38,NW,321,0.0,0.0,68,0.00,,,0.00,WeatherCatV1.13B119,2013-02-01 09:40:00,
2013-02-01 03:45:00,-2.0,-9.6,30.38,NW,319,0.0,0.0,69,0.00,,,0.00,WeatherCatV1.13B119,2013-02-01 09:45:00,
2013-02-01 03:50:00,-2.0,-9.6,30.38,NW,319,0.0,0.0,69,0.00,,,0.00,WeatherCatV1.13B119,2013-02-01 09:50:00,
2013-02-01 03:55:00,-1.8,-9.2,30.38,NW,319,1.0,1.0,70,0.00,,,0.00,WeatherCatV1.13B119,2013-02-01 09:55:00,
2013-02-01 04:00:00,-1.8,-9.2,30.39,NW,319,0.0,0.0,70,0.00,,,0.00,WeatherCatV1.13B119,2013-02-01 10:00:00,
2013-02-01 04:05:00,-1.8,-9.2,30.39,WSW,255,0.0,3.0,70,0.00,,,0.00,WeatherCatV1.13B119,2013-02-01 10:05:00,
2013-02-01 04:10:00,-1.8,-9.2,30.39,WSW,255,0.0,1.0,70,0.00,,,0.00,WeatherCatV1.13B119,2013-02-01 10:10:00,
2013-02-01 04:15:00,-1.6,-9.0,30.39,WSW,255,0.0,0.0,70,0.00,,,0.00,WeatherCatV1.13B119,2013-02-01 10:15:00,
2013-02-01 04:20:00,-1.6,-9.0,30.39,WSW,251,1.0,3.0,70,0.00,,,0.00,WeatherCatV1.13B119,2013-02-01 10:20:00,
2013-02-01 04:25:00,-1.4,-8.8,30.39,WSW,249,1.0,2.0,70,0.00,,,0.00,WeatherCatV1.13B119,2013-02-01 10:25:00,
2013-02-01 04:30:00,-1.2,-8.6,30.40,WSW,248,1.0,2.0,70,0.00,,,0.00,WeatherCatV1.13B119,2013-02-01 10:30:00,
2013-02-01 04:35:00,-0.8,-8.5,30.40,WSW,248,0.0,2.0,69,0.00,,,0.00,WeatherCatV1.13B119,2013-02-01 10:35:00,
2013-02-01 04:40:00,-0.6,-8.3,30.40,WSW,248,0.0,2.0,69,0.00,,,0.00,WeatherCatV1.13B119,2013-02-01 10:40:00,
2013-02-01 04:45:00,-0.4,-7.8,30.38,WSW,248,2.0,2.0,70,0.00,,,0.00,WeatherCatV1.13B119,2013-02-01 10:45:00,
2013-02-01 04:50:00,0.0,-7.4,30.38,WSW,248,1.0,2.0,70,0.00,,,0.00,WeatherCatV1.13B119,2013-02-01 10:50:00,
2013-02-01 04:55:00,0.1,-7.3,30.38,WSW,248,1.0,2.0,70,0.00,,,0.00,WeatherCatV1.13B119,2013-02-01 10:55:00,
2013-02-01 05:00:00,0.3,-7.1,30.38,WSW,248,0.0,1.0,70,0.00,,,0.00,WeatherCatV1.13B119,2013-02-01 11:00:00,
2013-02-01 05:05:00,0.7,-6.5,30.38,WSW,246,1.0,4.0,71,0.00,,,0.00,WeatherCatV1.13B119,2013-02-01 11:05:00,
2013-02-01 05:10:00,0.9,-6.3,30.38,WSW,245,0.0,1.0,71,0.00,,,0.00,WeatherCatV1.13B119,2013-02-01 11:10:00,
2013-02-01 05:15:00,1.3,-6.2,30.37,WSW,244,0.0,2.0,70,0.00,,,0.00,WeatherCatV1.13B119,2013-02-01 11:15:00,
2013-02-01 05:20:00,1.3,-6.2,30.37,WSW,242,0.0,1.0,70,0.00,,,0.00,WeatherCatV1.13B119,2013-02-01 11:20:00,
2013-02-01 05:25:00,1.5,-6.3,30.37,WSW,242,2.0,3.0,69,0.00,,,0.00,WeatherCatV1.13B119,2013-02-01 11:25:00,
2013-02-01 05:30:00,1.7,-6.1,30.37,WSW,240,0.0,3.0,69,0.00,,,0.00,WeatherCatV1.13B119,2013-02-01 11:30:00,
2013-02-01 05:35:00,1.8,-6.3,30.37,WSW,240,0.0,1.0,68,0.00,,,0.00,WeatherCatV1.13B119,2013-02-01 11:35:00,
2013-02-01 05:40:00,2.0,-6.1,30.37,WSW,240,0.0,0.0,68,0.00,,,0.00,WeatherCatV1.13B119,2013-02-01 11:40:00,
2013-02-01 05:45:00,2.0,-6.1,30.38,WSW,240,0.0,1.0,68,0.00,,,0.00,WeatherCatV1.13B119,2013-02-01 11:45:00,
2013-02-01 05:50:00,2.2,-6.2,30.38,WSW,240,0.0,0.0,67,0.00,,,0.00,WeatherCatV1.13B119,2013-02-01 11:50:00,
2013-02-01 05:55:00,2.4,-6.0,30.38,SSW,206,3.0,3.0,67,0.00,,,0.00,WeatherCatV1.13B119,2013-02-01 11:55:00,
2013-02-01 06:00:00,2.4,-6.0,30.37,SSW,205,2.0,4.0,67,0.00,,,0.00,WeatherCatV1.13B119,2013-02-01 12:00:00,
2013-02-01 06:05:00,2.4,-6.3,30.37,SSW,205,0.0,3.0,66,0.00,,,0.00,WeatherCatV1.13B119,2013-02-01 12:05:00,
2013-02-01 06:10:00,2.4,-6.3,30.37,SSW,204,1.0,2.0,66,0.00,,,0.00,WeatherCatV1.13B119,2013-02-01 12:10:00,
2013-02-01 06:15:00,2.4,-6.3,30.37,SSW,197,2.0,5.0,66,0.00,,,0.00,WeatherCatV1.13B119,2013-02-01 12:15:00,
2013-02-01 06:20:00,2.4,-6.0,30.37,SSW,197,0.0,2.0,67,0.00,,,0.00,WeatherCatV1.13B119,2013-02-01 12:20:00,
2013-02-01 06:25:00,2.4,-6.0,30.37,SSW,196,0.0,2.0,67,0.00,,,0.00,WeatherCatV1.13B119,2013-02-01 12:25:00,
2013-02-01 06:30:00,2.6,-5.8,30.37,SSW,196,1.0,4.0,67,0.00,,,0.00,WeatherCatV1.13B119,2013-02-01 12:30:00,
2013-02-01 06:35:00,2.6,-5.8,30.37,SSW,195,2.0,2.0,67,0.00,,,0.00,WeatherCatV1.13B119,2013-02-01 12:35:00,
2013-02-01 06:40:00,2.8,-5.6,30.37,SSW,194,2.0,3.0,67,0.00,,,0.00,WeatherCatV1.13B119,2013-02-01 12:40:00,
2013-02-01 06:45:00,2.8,-5.9,30.37,South,186,3.0,6.0,66,0.00,,,0.00,WeatherCatV1.13B119,2013-02-01 12:45:00,
2013-02-01 06:50:00,2.8,-5.9,30.37,South,184,3.0,4.0,66,0.00,,,0.00,WeatherCatV1.13B119,2013-02-01 12:50:00,
2013-02-01 06:55:00,3.0,-6.1,30.37,South,184,2.0,3.0,65,0.00,,,0.00,WeatherCatV1.13B119,2013-02-01 12:55:00,
2013-02-01 07:00:00,3.0,-6.1,30.36,South,184,1.0,3.0,65,0.00,,,0.00,WeatherCatV1.13B119,2013-02-01 13:00:00,
2013-02-01 07:05:00,3.2,-5.9,30.36,South,184,1.0,3.0,65,0.00,,,0.00,WeatherCatV1.13B119,2013-02-01 13:05:00,
2013-02-01 07:10:00,3.4,-5.7,30.36,South,184,0.0,2.0,65,0.00,,,0.00,WeatherCatV1.13B119,2013-02-01 13:10:00,
2013-02-01 07:15:00,3.5,-5.3,30.36,South,183,1.0,1.0,66,0.00,,,0.00,WeatherCatV1.13B119,2013-02-01 13:15:00,
2013-02-01 07:20:00,3.5,-5.6,30.36,South,183,0.0,2.0,65,0.00,,,0.00,WeatherCatV1.13B119,2013-02-01 13:20:00,
2013-02-01 07:25:00,3.7,-5.4,30.36,South,183,2.0,2.0,65,0.00,,,0.00,WeatherCatV1.13B119,2013-02-01 13:25:00,
2013-02-01 07:30:00,3.7,-5.1,30.35,South,183,0.0,2.0,66,0.00,,,0.00,WeatherCatV1.13B119,2013-02-01 13:30:00,
2013-02-01 07:35:00,3.7,-5.1,30.35,South,183,2.0,2.0,66,0.00,,,0.00,WeatherCatV1.13B119,2013-02-01 13:35:00,
2013-02-01 07:40:00,3.9,-4.9,30.35,South,183,2.0,2.0,66,0.00,,,0.00,WeatherCatV1.13B119,2013-02-01 13:40:00,
2013-02-01 07:45:00,3.9,-4.9,30.35,South,183,0.0,1.0,66,0.00,,,0.00,WeatherCatV1.13B119,2013-02-01 13:45:00,
2013-02-01 07:50:00,4.1,-5.0,30.35,South,183,1.0,2.0,65,0.00,,,0.00,WeatherCatV1.13B119,2013-02-01 13:50:00,
2013-02-01 07:55:00,4.1,-5.0,30.35,South,180,1.0,2.0,65,0.00,,,0.00,WeatherCatV1.13B119,2013-02-01 13:55:00,
2013-02-01 08:00:00,4.3,-4.8,30.35,South,178,0.0,1.0,65,0.00,,,0.00,WeatherCatV1.13B119,2013-02-01 14:00:00,
2013-02-01 08:05:00,4.3,-4.8,30.35,South,176,0.0,1.0,65,0.00,,,0.00,WeatherCatV1.13B119,2013-02-01 14:05:00,
2013-02-01 08:10:00,4.5,-4.6,30.35,South,173,2.0,4.0,65,0.00,,,0.00,WeatherCatV1.13B119,2013-02-01 14:10:00,
2013-02-01 08:15:00,4.7,-4.4,30.35,South,173,0.0,3.0,65,0.00,,,0.00,WeatherCatV1.13B119,2013-02-01 14:15:00,
2013-02-01 08:20:00,4.8,-4.7,30.35,South,170,3.0,4.0,64,0.00,,,0.00,WeatherCatV1.13B119,2013-02-01 14:20:00,
2013-02-01 08:25:00,4.8,-5.3,30.35,SSE,168,1.0,3.0,62,0.00,,,0.00,WeatherCatV1.13B119,2013-02-01 14:25:00,
2013-02-01 08:30:00,4.8,-5.3,30.34,SSE,167,1.0,4.0,62,0.00,,,0.00,WeatherCatV1.13B119,2013-02-01 14:30:00,
2013-02-01 08:35:00,4.8,-5.0,30.34,SSE,166,0.0,2.0,63,0.00,,,0.00,WeatherCatV1.13B119,2013-02-01 14:35:00,
2013-02-01 08:40:00,5.0,-4.5,30.34,SSE,166,1.0,3.0,64,0.00,,,0.00,WeatherCatV1.13B119,2013-02-01 14:40:00,
2013-02-01 08:45:00,5.0,-4.5,30.33,SE,136,3.0,5.0,64,0.00,,,0.00,WeatherCatV1.13B119,2013-02-01 14:45:00,
2013-02-01 08:50:00,5.4,-4.1,30.33,ESE,122,1.0,3.0,64,0.00,,,0.00,WeatherCatV1.13B119,2013-02-01 14:50:00,
2013-02-01 08:55:00,6.0,-3.5,30.33,SE,125,2.0,3.0,64,0.00,,,0.00,WeatherCatV1.13B119,2013-02-01 14:55:00,
2013-02-01 09:00:00,6.0,-3.2,30.34,SE,125,2.0,4.0,65,0.00,,,0.00,WeatherCatV1.13B119,2013-02-01 15:00:00,
2013-02-01 09:05:00,6.0,-3.2,30.34,SE,125,2.0,3.0,65,0.00,,,0.00,WeatherCatV1.13B119,2013-02-01 15:05:00,
2013-02-01 09:10:00,5.8,-3.4,30.34,SE,125,1.0,5.0,65,0.00,,,0.00,WeatherCatV1.13B119,2013-02-01 15:10:00,
2013-02-01 09:15:00,5.6,-3.9,30.33,SE,127,0.0,3.0,64,0.00,,,0.00,WeatherCatV1.13B119,2013-02-01 15:15:00,
2013-02-01 09:20:00,5.8,-3.7,30.33,SE,131,5.0,6.0,64,0.00,,,0.00,WeatherCatV1.13B119,2013-02-01 15:20:00,
2013-02-01 09:25:00,6.3,-3.2,30.33,SE,130,2.0,3.0,64,0.00,,,0.00,WeatherCatV1.13B119,2013-02-01 15:25:00,
2013-02-01 09:30:00,6.7,-3.5,30.33,SE,130,1.0,4.0,62,0.00,,,0.00,WeatherCatV1.13B119,2013-02-01 15:30:00,
2013-02-01 09:35:00,6.7,-3.9,30.33,SE,130,1.0,4.0,61,0.00,,,0.00,WeatherCatV1.13B119,2013-02-01 15:35:00,
2013-02-01 09:40:00,6.9,-4.0,30.33,SE,130,0.0,3.0,60,0.00,,,0.00,WeatherCatV1.13B119,2013-02-01 15:40:00,
2013-02-01 09:45:00,7.0,-3.6,30.33,SE,132,2.0,3.0,61,0.00,,,0.00,WeatherCatV1.13B119,2013-02-01 15:45:00,
2013-02-01 09:50:00,7.2,-3.7,30.33,SSE,162,1.0,4.0,60,0.00,,,0.00,WeatherCatV1.13B119,2013-02-01 15:50:00,
2013-02-01 09:55:00,7.7,-3.3,30.33,SSE,158,2.0,4.0,60,0.00,,,0.00,WeatherCatV1.13B119,2013-02-01 15:55:00,
2013-02-01 10:00:00,8.3,-2.7,30.31,SSE,150,2.0,3.0,60,0.00,,,0.00,WeatherCatV1.13B119,2013-02-01 16:00:00,
2013-02-01 10:05:00,8.6,-2.4,30.31,South,175,3.0,3.0,60,0.00,,,0.00,WeatherCatV1.13B119,2013-02-01 16:05:00,
2013-02-01 10:10:00,9.0,-2.4,30.31,SSE,155,0.0,3.0,59,0.00,,,0.00,WeatherCatV1.13B119,2013-02-01 16:10:00,
2013-02-01 10:15:00,9.3,-2.8,30.30,SE,131,3.0,4.0,57,0.00,,,0.00,WeatherCatV1.13B119,2013-02-01 16:15:00,
2013-02-01 10:20:00,9.5,-3.0,30.30,South,190,4.0,13.0,56,0.00,,,0.00,WeatherCatV1.13B119,2013-02-01 16:20:00,
2013-02-01 10:25:00,9.9,-3.0,30.30,SSW,192,6.0,9.0,55,0.00,,,0.00,WeatherCatV1.13B119,2013-02-01 16:25:00,
2013-02-01 10:30:00,10.0,-3.3,30.30,SSE,163,2.0,6.0,54,0.00,,,0.00,WeatherCatV1.13B119,2013-02-01 16:30:00,
2013-02-01 10:35:00,10.4,-2.9,30.30,SSE,158,10.0,10.0,54,0.00,,,0.00,WeatherCatV1.13B119,2013-02-01 16:35:00,
2013-02-01 10:40:00,10.4,-2.9,30.30,South,169,9.0,10.0,54,0.00,,,0.00,WeatherCatV1.13B119,2013-02-01 16:40:00,
2013-02-01 10:45:00,10.5,-2.8,30.29,SE,136,3.0,5.0,54,0.00,,,0.00,WeatherCatV1.13B119,2013-02-01 16:45:00,
2013-02-01 10:50:00,10.5,-2.8,30.29,South,178,9.0,9.0,54,0.00,,,0.00,WeatherCatV1.13B119,2013-02-01 16:50:00,
2013-02-01 10:55:00,10.7,-2.6,30.29,ESE,116,4.0,11.0,54,0.00,,,0.00,WeatherCatV1.13B119,2013-02-01 16:55:00,
2013-02-01 11:00:00,10.7,-2.2,30.27,SE,141,1.0,9.0,55,0.00,,,0.00,WeatherCatV1.13B119,2013-02-01 17:00:00,
2013-02-01 11:05:00,11.1,-1.9,30.27,SE,130,4.0,7.0,55,0.00,,,0.00,WeatherCatV1.13B119,2013-02-01 17:05:00,
2013-02-01 11:10:00,11.2,-1.4,30.27,SSE,167,2.0,13.0,56,0.00,,,0.00,WeatherCatV1.13B119,2013-02-01 17:10:00,
2013-02-01 11:15:00,11.4,-1.6,30.27,SSE,147,3.0,10.0,55,0.00,,,0.00,WeatherCatV1.13B119,2013-02-01 17:15:00,
2013-02-01 11:20:00,11.7,-1.3,30.27,SE,134,4.0,5.0,55,0.00,,,0.00,WeatherCatV1.13B119,2013-02-01 17:20:00,
2013-02-01 11:25:00,11.9,-1.1,30.27,SSE,167,4.0,9.0,55,0.00,,,0.00,WeatherCatV1.13B119,2013-02-01 17:25:00,
2013-02-01 11:30:00,12.3,-1.1,30.26,SE,143,3.0,9.0,54,0.00,,,0.00,WeatherCatV1.13B119,2013-02-01 17:30:00,
2013-02-01 11:35:00,12.4,-0.7,30.26,South,181,6.0,11.0,55,0.00,,,0.00,WeatherCatV1.13B119,2013-02-01 17:35:00,
2013-02-01 11:40:00,12.6,-0.5,30.26,SSE,155,4.0,11.0,55,0.00,,,0.00,WeatherCatV1.13B119,2013-02-01 17:40:00,
2013-02-01 11:45:00,12.6,-0.1,30.25,South,188,0.0,6.0,56,0.00,,,0.00,WeatherCatV1.13B119,2013-02-01 17:45:00,
2013-02-01 11:50:00,12.9,0.2,30.25,South,173,2.0,6.0,56,0.00,,,0.00,WeatherCatV1.13B119,2013-02-01 17:50:00,
2013-02-01 11:55:00,13.8,1.4,30.25,South,171,5.0,7.0,57,0.00,,,0.00,WeatherCatV1.13B119,2013-02-01 17:55:00,
2013-02-01 12:00:00,14.3,1.5,30.24,South,187,1.0,11.0,56,0.00,,,0.00,WeatherCatV1.13B119,2013-02-01 18:00:00,
2013-02-01 12:05:00,14.6,1.8,30.24,South,171,3.0,10.0,56,0.00,,,0.00,WeatherCatV1.13B119,2013-02-01 18:05:00,
2013-02-01 12:10:00,14.9,2.1,30.24,SSE,151,4.0,13.0,56,0.00,,,0.00,WeatherCatV1.13B119,2013-02-01 18:10:00,
2013-02-01 12:15:00,15.2,2.4,30.22,South,190,6.0,8.0,56,0.00,,,0.00,WeatherCatV1.13B119,2013-02-01 18:15:00,
2013-02-01 12:20:00,15.9,3.0,30.22,South,178,6.0,6.0,56,0.00,,,0.00,WeatherCatV1.13B119,2013-02-01 18:20:00,
2013-02-01 12:25:00,16.2,3.3,30.22,ESE,117,1.0,4.0,56,0.00,,,0.00,WeatherCatV1.13B119,2013-02-01 18:25:00,
2013-02-01 12:30:00,16.5,3.6,30.21,South,177,4.0,10.0,56,0.00,,,0.00,WeatherCatV1.13B119,2013-02-01 18:30:00,
2013-02-01 12:35:00,16.5,3.6,30.21,SSE,164,7.0,12.0,56,0.00,,,0.00,WeatherCatV1.13B119,2013-02-01 18:35:00,
2013-02-01 12:40:00,16.7,4.5,30.21,SSE,162,1.0,2.0,58,0.00,,,0.00,WeatherCatV1.13B119,2013-02-01 18:40:00,
2013-02-01 12:45:00,17.3,5.1,30.19,South,173,1.0,6.0,58,0.00,,,0.00,WeatherCatV1.13B119,2013-02-01 18:45:00,
2013-02-01 12:50:00,18.0,5.7,30.19,SSE,152,6.0,11.0,58,0.00,,,0.00,WeatherCatV1.13B119,2013-02-01 18:50:00,
2013-02-01 12:55:00,18.3,6.0,30.19,SSW,200,5.0,12.0,58,0.00,,,0.00,WeatherCatV1.13B119,2013-02-01 18:55:00,
2013-02-01 13:00:00,18.6,6.3,30.18,South,188,3.0,10.0,58,0.00,,,0.00,WeatherCatV1.13B119,2013-02-01 19:00:00,
2013-02-01 13:05:00,18.6,5.9,30.18,SSE,165,6.0,10.0,57,0.00,,,0.00,WeatherCatV1.13B119,2013-02-01 19:05:00,
2013-02-01 13:10:00,18.4,6.1,30.18,SE,142,6.0,13.0,58,0.00,,,0.00,WeatherCatV1.13B119,2013-02-01 19:10:00,
2013-02-01 13:15:00,18.4,6.5,30.17,SSE,161,6.0,12.0,59,0.00,,,0.00,WeatherCatV1.13B119,2013-02-01 19:15:00,
2013-02-01 13:20:00,18.8,7.2,30.17,SSE,165,10.0,11.0,60,0.00,,,0.00,WeatherCatV1.13B119,2013-02-01 19:20:00,
2013-02-01 13:25:00,19.1,7.5,30.17,SSE,167,10.0,14.0,60,0.00,,,0.00,WeatherCatV1.13B119,2013-02-01 19:25:00,
2013-02-01 13:30:00,19.4,8.2,30.15,SSE,165,2.0,12.0,61,0.00,,,0.00,WeatherCatV1.13B119,2013-02-01 19:30:00,
2013-02-01 13:35:00,19.9,9.0,30.15,South,184,5.0,11.0,62,0.00,,,0.00,WeatherCatV1.13B119,2013-02-01 19:35:00,
2013-02-01 13:40:00,20.3,9.4,30.15,South,177,4.0,12.0,62,0.00,,,0.00,WeatherCatV1.13B119,2013-02-01 19:40:00,
2013-02-01 13:45:00,21.0,10.1,30.14,SE,136,9.0,16.0,62,0.00,,,0.00,WeatherCatV1.13B119,2013-02-01 19:45:00,
2013-02-01 13:50:00,21.4,10.4,30.14,SSW,202,6.0,12.0,62,0.00,,,0.00,WeatherCatV1.13B119,2013-02-01 19:50:00,
2013-02-01 13:55:00,21.9,10.9,30.14,SSE,165,5.0,7.0,62,0.00,,,0.00,WeatherCatV1.13B119,2013-02-01 19:55:00,
2013-02-01 14:00:00,22.5,11.5,30.12,South,188,3.0,4.0,62,0.00,,,0.00,WeatherCatV1.13B119,2013-02-01 20:00:00,
2013-02-01 14:05:00,23.0,11.9,30.12,SSE,157,6.0,19.0,62,0.00,,,0.00,WeatherCatV1.13B119,2013-02-01 20:05:00,
2013-02-01 14:10:00,23.5,12.1,30.12,South,182,7.0,7.0,61,0.00,,,0.00,WeatherCatV1.13B119,2013-02-01 20:10:00,
2013-02-01 14:15:00,23.9,12.4,30.11,South,180,13.0,13.0,61,0.00,,,0.00,WeatherCatV1.13B119,2013-02-01 20:15:00,
2013-02-01 14:20:00,24.4,12.9,30.11,South,179,6.0,9.0,61,0.00,,,0.00,WeatherCatV1.13B119,2013-02-01 20:20:00,
2013-02-01 14:25:00,24.7,13.2,30.11,SSW,194,3.0,6.0,61,0.00,,,0.00,WeatherCatV1.13B119,2013-02-01 20:25:00,
2013-02-01 14:30:00,25.1,13.9,30.11,South,182,2.0,5.0,62,0.00,,,0.00,WeatherCatV1.13B119,2013-02-01 20:30:00,
2013-02-01 14:35:00,25.6,14.0,30.11,SSE,160,3.0,11.0,61,0.00,,,0.00,WeatherCatV1.13B119,2013-02-01 20:35:00,
2013-02-01 14:40:00,25.8,13.9,30.11,South,190,12.0,15.0,60,0.00,,,0.00,WeatherCatV1.13B119,2013-02-01 20:40:00,
2013-02-01 14:45:00,25.8,13.5,30.10,SSW,192,11.0,13.0,59,0.00,,,0.00,WeatherCatV1.13B119,2013-02-01 20:45:00,
2013-02-01 14:50:00,25.8,13.5,30.10,South,180,10.0,18.0,59,0.00,,,0.00,WeatherCatV1.13B119,2013-02-01 20:50:00,
2013-02-01 14:55:00,25.8,13.5,30.10,South,178,5.0,18.0,59,0.00,,,0.00,WeatherCatV1.13B119,2013-02-01 20:55:00,
2013-02-01 15:00:00,25.8,13.9,30.09,South,185,9.0,10.0,60,0.00,,,0.00,WeatherCatV1.13B119,2013-02-01 21:00:00,
2013-02-01 15:05:00,26.0,13.7,30.09,South,186,7.0,10.0,59,0.00,,,0.00,WeatherCatV1.13B119,2013-02-01 21:05:00,
2013-02-01 15:10:00,26.0,13.7,30.09,SSE,150,5.0,14.0,59,0.00,,,0.00,WeatherCatV1.13B119,2013-02-01 21:10:00,
2013-02-01 15:15:00,26.3,13.9,30.08,SSW,203,13.0,13.0,59,0.00,,,0.00,WeatherCatV1.13B119,2013-02-01 21:15:00,
2013-02-01 15:20:00,26.3,13.6,30.08,SSE,159,7.0,9.0,58,0.00,,,0.00,WeatherCatV1.13B119,2013-02-01 21:20:00,
2013-02-01 15:25:00,26.3,13.6,30.08,SW,225,6.0,17.0,58,0.00,,,0.00,WeatherCatV1.13B119,2013-02-01 21:25:00,
2013-02-01 15:30:00,26.4,14.0,30.08,SSW,200,10.0,11.0,59,0.00,,,0.00,WeatherCatV1.13B119,2013-02-01 21:30:00,
2013-02-01 15:35:00,26.4,14.0,30.08,South,191,5.0,18.0,59,0.00,,,0.00,WeatherCatV1.13B119,2013-02-01 21:35:00,
2013-02-01 15:40:00,26.4,13.7,30.08,South,182,7.0,15.0,58,0.00,,,0.00,WeatherCatV1.13B119,2013-02-01 21:40:00,
2013-02-01 15:45:00,26.4,14.0,30.09,SSE,165,5.0,15.0,59,0.00,,,0.00,WeatherCatV1.13B119,2013-02-01 21:45:00,
2013-02-01 15:50:00,26.6,14.2,30.09,SSE,165,7.0,13.0,59,0.00,,,0.00,WeatherCatV1.13B119,2013-02-01 21:50:00,
2013-02-01 15:55:00,26.6,14.2,30.09,South,173,11.0,12.0,59,0.00,,,0.00,WeatherCatV1.13B119,2013-02-01 21:55:00,
2013-02-01 16:00:00,26.6,14.2,30.08,South,189,8.0,19.0,59,0.00,,,0.00,WeatherCatV1.13B119,2013-02-01 22:00:00,
2013-02-01 16:05:00,26.4,14.0,30.08,South,176,6.0,14.0,59,0.00,,,0.00,WeatherCatV1.13B119,2013-02-01 22:05:00,
2013-02-01 16:10:00,26.4,14.4,30.08,SSE,157,4.0,12.0,60,0.00,,,0.00,WeatherCatV1.13B119,2013-02-01 22:10:00,
2013-02-01 16:15:00,26.4,14.4,30.07,South,185,15.0,16.0,60,0.00,,,0.00,WeatherCatV1.13B119,2013-02-01 22:15:00,
2013-02-01 16:20:00,26.4,14.4,30.07,South,182,4.0,16.0,60,0.00,,,0.00,WeatherCatV1.13B119,2013-02-01 22:20:00,
2013-02-01 16:25:00,26.4,14.4,30.07,SSW,205,17.0,17.0,60,0.00,,,0.00,WeatherCatV1.13B119,2013-02-01 22:25:00,
2013-02-01 16:30:00,26.6,14.6,30.06,SW,217,7.0,13.0,60,0.00,,,0.00,WeatherCatV1.13B119,2013-02-01 22:30:00,
2013-02-01 16:35:00,26.6,14.6,30.06,South,182,7.0,11.0,60,0.00,,,0.00,WeatherCatV1.13B119,2013-02-01 22:35:00,
2013-02-01 16:40:00,26.6,14.6,30.06,SSW,201,7.0,17.0,60,0.00,,,0.00,WeatherCatV1.13B119,2013-02-01 22:40:00,
2013-02-01 16:45:00,26.4,14.4,30.05,SSW,204,9.0,11.0,60,0.00,,,0.00,WeatherCatV1.13B119,2013-02-01 22:45:00,
2013-02-01 16:50:00,26.4,14.4,30.05,South,185,11.0,15.0,60,0.00,,,0.00,WeatherCatV1.13B119,2013-02-01 22:50:00,
2013-02-01 16:55:00,26.4,14.4,30.05,SSE,167,4.0,16.0,60,0.00,,,0.00,WeatherCatV1.13B119,2013-02-01 22:55:00,
2013-02-01 17:00:00,26.3,14.7,30.05,SSW,202,7.0,14.0,61,0.00,,,0.00,WeatherCatV1.13B119,2013-02-01 23:00:00,
2013-02-01 17:05:00,26.1,14.1,30.05,South,172,11.0,13.0,60,0.00,,,0.00,WeatherCatV1.13B119,2013-02-01 23:05:00,
2013-02-01 17:10:00,26.0,14.4,30.05,South,179,6.0,14.0,61,0.00,,,0.00,WeatherCatV1.13B119,2013-02-01 23:10:00,
2013-02-01 17:15:00,25.8,14.6,30.05,South,176,11.0,13.0,62,0.00,,,0.00,WeatherCatV1.13B119,2013-02-01 23:15:00,
2013-02-01 17:20:00,25.8,14.6,30.05,SSW,205,5.0,10.0,62,0.00,,,0.00,WeatherCatV1.13B119,2013-02-01 23:20:00,
2013-02-01 17:25:00,25.8,14.6,30.05,SSE,150,9.0,13.0,62,0.00,,,0.00,WeatherCatV1.13B119,2013-02-01 23:25:00,
2013-02-01 17:30:00,25.8,14.6,30.05,SSE,163,6.0,16.0,62,0.00,,,0.00,WeatherCatV1.13B119,2013-02-01 23:30:00,
2013-02-01 17:35:00,25.8,14.6,30.05,SW,219,4.0,14.0,62,0.00,,,0.00,WeatherCatV1.13B119,2013-02-01 23:35:00,
2013-02-01 17:40:00,25.7,14.9,30.05,South,182,7.0,10.0,63,0.00,,,0.00,WeatherCatV1.13B119,2013-02-01 23:40:00,
2013-02-01 17:45:00,25.7,14.9,30.05,South,188,7.0,15.0,63,0.00,,,0.00,WeatherCatV1.13B119,2013-02-01 23:45:00,
2013-02-01 17:50:00,25.7,14.9,30.05,SSE,167,3.0,8.0,63,0.00,,,0.00,WeatherCatV1.13B119,2013-02-01 23:50:00,
2013-02-01 17:55:00,25.7,15.2,30.05,South,174,3.0,7.0,64,0.00,,,0.00,WeatherCatV1.13B119,2013-02-01 23:55:00,
2013-02-01 18:00:00,25.6,15.1,30.05,SSW,209,5.0,9.0,64,0.00,,,0.00,WeatherCatV1.13B119,2013-02-02 00:00:00,
2013-02-01 18:05:00,25.6,15.1,30.05,South,188,3.0,11.0,64,0.00,,,0.00,WeatherCatV1.13B119,2013-02-02 00:05:00,
2013-02-01 18:10:00,25.6,15.1,30.05,SSW,192,3.0,11.0,64,0.00,,,0.00,WeatherCatV1.13B119,2013-02-02 00:10:00,
2013-02-01 18:15:00,25.6,15.5,30.05,South,173,4.0,15.0,65,0.00,,,0.00,WeatherCatV1.13B119,2013-02-02 00:15:00,
2013-02-01 18:20:00,25.6,15.5,30.05,SSE,163,16.0,16.0,65,0.00,,,0.00,WeatherCatV1.13B119,2013-02-02 00:20:00,
2013-02-01 18:25:00,25.4,15.3,30.05,South,177,5.0,11.0,65,0.00,,,0.00,WeatherCatV1.13B119,2013-02-02 00:25:00,
2013-02-01 18:30:00,25.4,14.9,30.06,South,170,7.0,11.0,64,0.00,,,0.00,WeatherCatV1.13B119,2013-02-02 00:30:00,
2013-02-01 18:35:00,25.4,14.9,30.06,SSW,194,2.0,11.0,64,0.00,,,0.00,WeatherCatV1.13B119,2013-02-02 00:35:00,
2013-02-01 18:40:00,25.4,15.3,30.06,South,180,5.0,12.0,65,0.00,,,0.00,WeatherCatV1.13B119,2013-02-02 00:40:00,
2013-02-01 18:45:00,25.4,15.3,30.06,South,180,5.0,11.0,65,0.00,,,0.00,WeatherCatV1.13B119,2013-02-02 00:45:00,
2013-02-01 18:50:00,25.3,15.2,30.06,SE,137,9.0,11.0,65,0.00,,,0.00,WeatherCatV1.13B119,2013-02-02 00:50:00,
2013-02-01 18:55:00,25.3,15.2,30.06,South,179,3.0,6.0,65,0.00,,,0.00,WeatherCatV1.13B119,2013-02-02 00:55:00,
2013-02-01 19:00:00,25.3,15.2,30.06,South,175,2.0,13.0,65,0.00,,,0.00,WeatherCatV1.13B119,2013-02-02 01:00:00,
2013-02-01 19:05:00,25.1,15.0,30.06,South,186,6.0,11.0,65,0.00,,,0.00,WeatherCatV1.13B119,2013-02-02 01:05:00,
2013-02-01 19:10:00,25.1,15.0,30.06,SSW,202,10.0,11.0,65,0.00,,,0.00,WeatherCatV1.13B119,2013-02-02 01:10:00,
2013-02-01 19:15:00,25.0,15.3,30.05,South,183,4.0,9.0,66,0.00,,,0.00,WeatherCatV1.13B119,2013-02-02 01:15:00,
2013-02-01 19:20:00,25.0,15.3,30.05,South,183,3.0,6.0,66,0.00,,,0.00,WeatherCatV1.13B119,2013-02-02 01:20:00,
2013-02-01 19:25:00,25.0,15.3,30.05,South,185,11.0,11.0,66,0.00,,,0.00,WeatherCatV1.13B119,2013-02-02 01:25:00,
2013-02-01 19:30:00,25.0,15.3,30.05,SSE,167,3.0,7.0,66,0.00,,,0.00,WeatherCatV1.13B119,2013-02-02 01:30:00,
2013-02-01 19:35:00,25.0,15.3,30.05,South,180,8.0,10.0,66,0.00,,,0.00,WeatherCatV1.13B119,2013-02-02 01:35:00,
2013-02-01 19:40:00,25.0,15.3,30.05,South,174,6.0,11.0,66,0.00,,,0.00,WeatherCatV1.13B119,2013-02-02 01:40:00,
2013-02-01 19:45:00,25.1,15.4,30.05,South,177,7.0,7.0,66,0.00,,,0.00,WeatherCatV1.13B119,2013-02-02 01:45:00,
2013-02-01 19:50:00,25.1,15.4,30.05,SSW,198,6.0,10.0,66,0.00,,,0.00,WeatherCatV1.13B119,2013-02-02 01:50:00,
2013-02-01 19:55:00,25.1,15.4,30.05,SSE,165,2.0,9.0,66,0.00,,,0.00,WeatherCatV1.13B119,2013-02-02 01:55:00,
2013-02-01 20:00:00,25.1,15.4,30.05,South,188,5.0,5.0,66,0.00,,,0.00,WeatherCatV1.13B119,2013-02-02 02:00:00,
2013-02-01 20:05:00,25.1,15.4,30.05,SSE,165,5.0,12.0,66,0.00,,,0.00,WeatherCatV1.13B119,2013-02-02 02:05:00,
2013-02-01 20:10:00,25.1,15.4,30.05,South,180,4.0,10.0,66,0.00,,,0.00,WeatherCatV1.13B119,2013-02-02 02:10:00,
2013-02-01 20:15:00,25.3,15.6,30.04,South,182,10.0,10.0,66,0.00,,,0.00,WeatherCatV1.13B119,2013-02-02 02:15:00,
2013-02-01 20:20:00,25.3,15.6,30.04,South,188,5.0,9.0,66,0.00,,,0.00,WeatherCatV1.13B119,2013-02-02 02:20:00,
2013-02-01 20:25:00,25.3,15.6,30.04,South,188,6.0,7.0,66,0.00,,,0.00,WeatherCatV1.13B119,2013-02-02 02:25:00,
2013-02-01 20:30:00,25.4,15.7,30.04,South,175,5.0,12.0,66,0.00,,,0.00,WeatherCatV1.13B119,2013-02-02 02:30:00,
2013-02-01 20:35:00,25.4,15.7,30.04,South,173,6.0,8.0,66,0.00,,,0.00,WeatherCatV1.13B119,2013-02-02 02:35:00,
2013-02-01 20:40:00,25.4,15.7,30.04,South,182,6.0,9.0,66,0.00,,,0.00,WeatherCatV1.13B119,2013-02-02 02:40:00,
2013-02-01 20:45:00,25.6,15.8,30.04,South,188,4.0,7.0,66,0.00,,,0.00,WeatherCatV1.13B119,2013-02-02 02:45:00,
2013-02-01 20:50:00,25.6,15.5,30.04,South,169,5.0,7.0,65,0.00,,,0.00,WeatherCatV1.13B119,2013-02-02 02:50:00,
2013-02-01 20:55:00,25.6,15.8,30.04,South,171,1.0,6.0,66,0.00,,,0.00,WeatherCatV1.13B119,2013-02-02 02:55:00,
2013-02-01 21:00:00,25.6,15.8,30.04,South,173,3.0,9.0,66,0.00,,,0.00,WeatherCatV1.13B119,2013-02-02 03:00:00,
2013-02-01 21:05:00,25.6,15.8,30.04,South,175,3.0,9.0,66,0.00,,,0.00,WeatherCatV1.13B119,2013-02-02 03:05:00,
2013-02-01 21:10:00,25.6,15.8,30.04,SSE,168,4.0,5.0,66,0.00,,,0.00,WeatherCatV1.13B119,2013-02-02 03:10:00,
2013-02-01 21:15:00,25.6,15.8,30.04,South,190,6.0,6.0,66,0.00,,,0.00,WeatherCatV1.13B119,2013-02-02 03:15:00,
2013-02-01 21:20:00,25.4,15.7,30.04,South,171,0.0,12.0,66,0.00,,,0.00,WeatherCatV1.13B119,2013-02-02 03:20:00,
2013-02-01 21:25:00,25.4,16.0,30.04,SSE,161,4.0,9.0,67,0.00,,,0.00,WeatherCatV1.13B119,2013-02-02 03:25:00,
2013-02-01 21:30:00,25.4,16.0,30.03,SSE,168,6.0,9.0,67,0.00,,,0.00,WeatherCatV1.13B119,2013-02-02 03:30:00,
2013-02-01 21:35:00,25.4,16.0,30.03,SSE,166,2.0,5.0,67,0.00,,,0.00,WeatherCatV1.13B119,2013-02-02 03:35:00,
2013-02-01 21:40:00,25.3,15.9,30.03,South,170,6.0,9.0,67,0.00,,,0.00,WeatherCatV1.13B119,2013-02-02 03:40:00,
2013-02-01 21:45:00,25.3,15.9,30.04,SSE,164,2.0,7.0,67,0.00,,,0.00,WeatherCatV1.13B119,2013-02-02 03:45:00,
2013-02-01 21:50:00,25.3,15.9,30.04,SSW,206,2.0,2.0,67,0.00,,,0.00,WeatherCatV1.13B119,2013-02-02 03:50:00,
2013-02-01 21:55:00,25.3,15.9,30.04,South,175,2.0,4.0,67,0.00,,,0.00,WeatherCatV1.13B119,2013-02-02 03:55:00,
2013-02-01 22:00:00,25.1,15.7,30.04,South,172,5.0,7.0,67,0.00,,,0.00,WeatherCatV1.13B119,2013-02-02 04:00:00,
2013-02-01 22:05:00,25.1,15.7,30.04,South,186,1.0,6.0,67,0.00,,,0.00,WeatherCatV1.13B119,2013-02-02 04:05:00,
2013-02-01 22:10:00,25.1,15.7,30.04,South,178,4.0,4.0,67,0.00,,,0.00,WeatherCatV1.13B119,2013-02-02 04:10:00,
2013-02-01 22:15:00,25.0,15.6,30.04,South,188,3.0,6.0,67,0.00,,,0.00,WeatherCatV1.13B119,2013-02-02 04:15:00,
2013-02-01 22:20:00,25.0,15.6,30.04,SSW,202,0.0,1.0,67,0.00,,,0.00,WeatherCatV1.13B119,2013-02-02 04:20:00,
2013-02-01 22:25:00,25.0,15.6,30.04,South,188,1.0,5.0,67,0.00,,,0.00,WeatherCatV1.13B119,2013-02-02 04:25:00,
2013-02-01 22:30:00,25.0,16.0,30.04,South,190,4.0,4.0,68,0.00,,,0.00,WeatherCatV1.13B119,2013-02-02 04:30:00,
2013-02-01 22:35:00,25.0,16.0,30.04,South,190,0.0,0.0,68,0.00,,,0.00,WeatherCatV1.13B119,2013-02-02 04:35:00,
2013-02-01 22:40:00,25.1,16.0,30.04,South,189,0.0,0.0,68,0.00,,,0.00,WeatherCatV1.13B119,2013-02-02 04:40:00,
2013-02-01 22:45:00,25.3,16.2,30.04,South,190,0.0,0.0,68,0.00,,,0.00,WeatherCatV1.13B119,2013-02-02 04:45:00,
2013-02-01 22:50:00,25.4,16.0,30.04,South,190,3.0,4.0,67,0.00,,,0.00,WeatherCatV1.13B119,2013-02-02 04:50:00,
2013-02-01 22:55:00,25.4,16.3,30.04,South,190,0.0,0.0,68,0.00,,,0.00,WeatherCatV1.13B119,2013-02-02 04:55:00,
2013-02-01 23:00:00,25.6,16.2,30.03,South,190,1.0,2.0,67,0.00,,,0.00,WeatherCatV1.13B119,2013-02-02 05:00:00,
2013-02-01 23:05:00,25.6,16.5,30.03,South,190,1.0,3.0,68,0.00,,,0.00,WeatherCatV1.13B119,2013-02-02 05:05:00,
2013-02-01 23:10:00,25.7,16.6,30.03,South,190,0.0,0.0,68,0.00,,,0.00,WeatherCatV1.13B119,2013-02-02 05:10:00,
2013-02-01 23:15:00,25.7,16.6,30.03,South,190,3.0,3.0,68,0.00,,,0.00,WeatherCatV1.13B119,2013-02-02 05:15:00,
2013-02-01 23:20:00,25.8,16.7,30.03,South,190,0.0,4.0,68,0.00,,,0.00,WeatherCatV1.13B119,2013-02-02 05:20:00,
2013-02-01 23:25:00,25.8,16.7,30.03,South,190,0.0,2.0,68,0.00,,,0.00,WeatherCatV1.13B119,2013-02-02 05:25:00,
2013-02-01 23:30:00,26.0,16.9,30.02,South,189,0.0,3.0,68,0.00,,,0.00,WeatherCatV1.13B119,2013-02-02 05:30:00,
2013-02-01 23:35:00,26.0,16.9,30.02,South,189,0.0,2.0,68,0.00,,,0.00,WeatherCatV1.13B119,2013-02-02 05:35:00,
2013-02-01 23:40:00,26.0,16.9,30.02,South,189,2.0,3.0,68,0.00,,,0.00,WeatherCatV1.13B119,2013-02-02 05:40:00,
2013-02-01 23:45:00,26.0,16.9,30.02,South,189,0.0,0.0,68,0.00,,,0.00,WeatherCatV1.13B119,2013-02-02 05:45:00,
2013-02-01 23:50:00,25.8,16.7,30.02,South,189,1.0,3.0,68,0.00,,,0.00,WeatherCatV1.13B119,2013-02-02 05:50:00,
2013-02-01 23:55:00,25.7,17.0,30.02,South,189,0.0,0.0,69,0.00,,,0.00,WeatherCatV1.13B119,2013-02-02 05:55:00,